地図

経路データ

SID SEASON NUMBER BASIN SUBBASIN NAME ISO_TIME NATURE LAT LON WMO_WIND WMO_PRES WMO_AGENCY TRACK_TYPE DIST2LAND LANDFALL IFLAG USA_AGENCY USA_ATCF_ID USA_LAT USA_LON USA_RECORD USA_STATUS USA_WIND USA_PRES USA_SSHS USA_R34_NE USA_R34_SE USA_R34_SW USA_R34_NW USA_R50_NE USA_R50_SE USA_R50_SW USA_R50_NW USA_R64_NE USA_R64_SE USA_R64_SW USA_R64_NW USA_POCI USA_ROCI USA_RMW USA_EYE TOKYO_LAT TOKYO_LON TOKYO_GRADE TOKYO_WIND TOKYO_PRES TOKYO_R50_DIR TOKYO_R50_LONG TOKYO_R50_SHORT TOKYO_R30_DIR TOKYO_R30_LONG TOKYO_R30_SHORT TOKYO_LAND CMA_LAT CMA_LON CMA_CAT CMA_WIND CMA_PRES HKO_LAT HKO_LON HKO_CAT HKO_WIND HKO_PRES NEWDELHI_LAT NEWDELHI_LON NEWDELHI_GRADE NEWDELHI_WIND NEWDELHI_PRES NEWDELHI_CI NEWDELHI_DP NEWDELHI_POCI REUNION_LAT REUNION_LON REUNION_TYPE REUNION_WIND REUNION_PRES REUNION_TNUM REUNION_CI REUNION_RMW REUNION_R34_NE REUNION_R34_SE REUNION_R34_SW REUNION_R34_NW REUNION_R50_NE REUNION_R50_SE REUNION_R50_SW REUNION_R50_NW REUNION_R64_NE REUNION_R64_SE REUNION_R64_SW REUNION_R64_NW BOM_LAT BOM_LON BOM_TYPE BOM_WIND BOM_PRES BOM_TNUM BOM_CI BOM_RMW BOM_R34_NE BOM_R34_SE BOM_R34_SW BOM_R34_NW BOM_R50_NE BOM_R50_SE BOM_R50_SW BOM_R50_NW BOM_R64_NE BOM_R64_SE BOM_R64_SW BOM_R64_NW BOM_ROCI BOM_POCI BOM_EYE BOM_POS_METHOD BOM_PRES_METHOD NADI_LAT NADI_LON NADI_CAT NADI_WIND NADI_PRES WELLINGTON_LAT WELLINGTON_LON WELLINGTON_WIND WELLINGTON_PRES DS824_LAT DS824_LON DS824_STAGE DS824_WIND DS824_PRES TD9636_LAT TD9636_LON TD9636_STAGE TD9636_WIND TD9636_PRES TD9635_LAT TD9635_LON TD9635_WIND TD9635_PRES TD9635_ROCI NEUMANN_LAT NEUMANN_LON NEUMANN_CLASS NEUMANN_WIND NEUMANN_PRES MLC_LAT MLC_LON MLC_CLASS MLC_WIND MLC_PRES USA_GUST BOM_GUST BOM_GUST_PER REUNION_GUST REUNION_GUST_PER USA_SEAHGT USA_SEARAD_NE USA_SEARAD_SE USA_SEARAD_SW USA_SEARAD_NW STORM_SPEED STORM_DIR
1979297N12265 1979 101 EP MM IGNACIO 1979-10-23 18:00:00 TS 11.7000 -95.3000 25 hurdat_epa main 458 449 O________OO___ hurdat_epa EP091979 11.7000 -95.3000 TD 25 -1 11.7000 -95.3000 TC 25 11.7000 -95.3000 1 25 9 262
1979297N12265 1979 101 EP MM IGNACIO 1979-10-23 21:00:00 TS 11.6400 -95.7489 main 458 449 P________PP___ EP091979 11.6376 -95.7476 TD 27 -1 11.6376 -95.7476 TC 27 11.6493 -95.7543 1 27 9 264
1979297N12265 1979 101 EP MM IGNACIO 1979-10-24 00:00:00 TS 11.6000 -96.2000 30 hurdat_epa main 449 447 O________OO___ hurdat_epa EP091979 11.6000 -96.2000 TD 30 -1 11.6000 -96.2000 TC 30 11.6000 -96.2000 1 30 9 267
1979297N12265 1979 101 EP MM IGNACIO 1979-10-24 03:00:00 TS 11.5909 -96.6522 main 447 447 P________PP___ EP091979 11.6000 -96.6574 TD 30 -1 11.6000 -96.6574 TC 30 11.5548 -96.6314 1 31 9 269
1979297N12265 1979 101 EP MM IGNACIO 1979-10-24 06:00:00 TS 11.5838 -97.0907 30 hurdat_epa main 451 451 O________OP___ hurdat_epa EP091979 11.6000 -97.1000 TD 30 -1 11.6000 -97.1000 TC 30 11.5190 -97.0535 1 32 8 266
1979297N12265 1979 101 EP MM IGNACIO 1979-10-24 09:00:00 TS 11.5397 -97.4948 main 469 469 P________PP___ EP091979 11.5499 -97.5001 TD 32 -1 11.5499 -97.5001 TC 32 11.4988 -97.4738 1 33 8 264
1979297N12265 1979 101 EP MM IGNACIO 1979-10-24 12:00:00 TS 11.5000 -97.9000 35 hurdat_epa main 480 480 O________OO___ hurdat_epa EP091979 11.5000 -97.9000 TS 35 0 11.5000 -97.9000 TC 35 11.5000 -97.9000 2 35 8 266
1979297N12265 1979 101 EP MM IGNACIO 1979-10-24 15:00:00 TS 11.4828 -98.3451 main 494 494 P________PP___ EP091979 11.4775 -98.3426 TS 35 0 11.4775 -98.3426 TC 35 11.5040 -98.3551 2 35 9 270
1979297N12265 1979 101 EP MM IGNACIO 1979-10-24 18:00:00 TS 11.5065 -98.8031 35 hurdat_epa main 515 512 O________OP___ hurdat_epa EP091979 11.5000 -98.8000 TS 35 0 11.5000 -98.8000 TC 35 11.5325 -98.8152 2 35 9 277
1979297N12265 1979 101 EP MM IGNACIO 1979-10-24 21:00:00 TS 11.5869 -99.2595 main 518 515 P________PP___ EP091979 11.5850 -99.2575 TS 35 0 11.5850 -99.2575 TC 35 11.5947 -99.2677 2 35 9 282
1979297N12265 1979 101 EP MM IGNACIO 1979-10-25 00:00:00 TS 11.7000 -99.7000 35 hurdat_epa main 523 523 O________OO___ hurdat_epa EP091979 11.7000 -99.7000 TS 35 0 11.7000 -99.7000 TC 35 11.7000 -99.7000 2 35 9 283
1979297N12265 1979 101 EP MM IGNACIO 1979-10-25 03:00:00 TS 11.7856 -100.111 main 529 525 P________PP___ EP091979 11.7699 -100.115 TS 37 0 11.7699 -100.115 TC 37 11.8485 -100.097 2 36 8 286
1979297N12265 1979 101 EP MM IGNACIO 1979-10-25 06:00:00 TS 11.9279 -100.495 40 hurdat_epa main 533 516 O________OP___ hurdat_epa EP091979 11.9000 -100.500 TS 40 0 11.9000 -100.500 TC 40 12.0396 -100.473 2 37 8 300
1979297N12265 1979 101 EP MM IGNACIO 1979-10-25 09:00:00 TS 12.1941 -100.847 main 516 493 P________PP___ EP091979 12.1774 -100.850 TS 40 0 12.1774 -100.850 TC 40 12.2610 -100.837 2 38 9 310
1979297N12265 1979 101 EP MM IGNACIO 1979-10-25 12:00:00 TS 12.5000 -101.200 40 hurdat_epa main 497 483 O________OO___ hurdat_epa EP091979 12.5000 -101.200 TS 40 0 12.5000 -101.200 TC 40 12.5000 -101.200 2 40 9 307
1979297N12265 1979 101 EP MM IGNACIO 1979-10-25 15:00:00 TS 12.7507 -101.599 main 482 476 P________PP___ EP091979 12.7575 -101.600 TS 40 0 12.7575 -101.600 TC 40 12.7235 -101.595 2 41 9 302
1979297N12265 1979 101 EP MM IGNACIO 1979-10-25 18:00:00 TS 12.9925 -101.998 40 hurdat_epa main 482 475 O________OP___ hurdat_epa EP091979 13.0000 -102.000 TS 40 0 13.0000 -102.000 TC 40 12.9626 -101.988 2 42 9 303
1979297N12265 1979 101 EP MM IGNACIO 1979-10-25 21:00:00 TS 13.2321 -102.370 main 479 454 P________PP___ EP091979 13.2350 -102.373 TS 42 0 13.2350 -102.373 TC 42 13.2204 -102.361 2 43 9 307
1979297N12265 1979 101 EP MM IGNACIO 1979-10-26 00:00:00 TS 13.5000 -102.700 45 hurdat_epa main 458 436 O________OO___ hurdat_epa EP091979 13.5000 -102.700 TS 45 0 13.5000 -102.700 TC 45 13.5000 -102.700 2 45 8 316
1979297N12265 1979 101 EP MM IGNACIO 1979-10-26 03:00:00 TS 13.8362 -102.967 main 441 413 P________PP___ EP091979 13.8424 -102.965 TS 50 0 13.8424 -102.965 TC 50 13.8112 -102.974 2 48 8 325
1979297N12265 1979 101 EP MM IGNACIO 1979-10-26 06:00:00 TS 14.1884 -103.203 55 hurdat_epa main 413 398 O________OP___ hurdat_epa EP091979 14.2000 -103.200 TS 55 0 14.2000 -103.200 TC 55 14.1420 -103.215 2 52 8 325
1979297N12265 1979 101 EP MM IGNACIO 1979-10-26 09:00:00 TS 14.5073 -103.444 main 398 376 P________PP___ EP091979 14.5149 -103.443 TS 57 0 14.5149 -103.443 TC 57 14.4768 -103.449 2 56 8 322
1979297N12265 1979 101 EP MM IGNACIO 1979-10-26 12:00:00 TS 14.8000 -103.700 60 hurdat_epa main 376 362 O________OO___ hurdat_epa EP091979 14.8000 -103.700 TS 60 0 14.8000 -103.700 TC 60 14.8000 -103.700 2 60 8 316
1979297N12265 1979 101 EP MM IGNACIO 1979-10-26 15:00:00 TS 15.0595 -103.988 main 355 341 P________PP___ EP091979 15.0500 -103.985 TS 65 1 15.0500 -103.985 TC 65 15.0974 -104.000 2 65 8 312
1979297N12265 1979 101 EP MM IGNACIO 1979-10-26 18:00:00 TS 15.3160 -104.304 70 hurdat_epa main 345 324 O________OP___ hurdat_epa EP091979 15.3000 -104.300 HU 70 1 15.3000 -104.300 TC 70 15.3799 -104.320 2 70 8 311
1979297N12265 1979 101 EP MM IGNACIO 1979-10-26 21:00:00 TS 15.6095 -104.645 main 324 307 P________PP___ EP091979 15.6000 -104.643 HU 75 1 15.6000 -104.643 TC 75 15.6474 -104.656 2 75 9 311
1979297N12265 1979 101 EP MM IGNACIO 1979-10-27 00:00:00 TS 15.9000 -105.000 80 hurdat_epa main 312 302 O________OO___ hurdat_epa EP091979 15.9000 -105.000 HU 80 1 15.9000 -105.000 TC 80 15.9000 -105.000 4 80 9 309
1979297N12265 1979 101 EP MM IGNACIO 1979-10-27 03:00:00 TS 16.1647 -105.350 main 309 308 P________PP___ EP091979 16.1649 -105.350 HU 85 2 16.1649 -105.350 TC 85 16.1637 -105.351 4 82 8 307
1979297N12265 1979 101 EP MM IGNACIO 1979-10-27 06:00:00 TS 16.4020 -105.701 90 hurdat_epa main 315 313 O________OP___ hurdat_epa EP091979 16.4000 -105.700 HU 90 2 16.4000 -105.700 TC 90 16.4100 -105.707 4 85 8 305
1979297N12265 1979 101 EP MM IGNACIO 1979-10-27 09:00:00 TS 16.6231 -106.040 main 317 311 P________PP___ EP091979 16.6224 -106.035 HU 90 2 16.6224 -106.035 TC 90 16.6262 -106.060 4 87 8 301
1979297N12265 1979 101 EP MM IGNACIO 1979-10-27 12:00:00 TS 16.8000 -106.400 90 hurdat_epa main 317 317 O________OO___ hurdat_epa EP091979 16.8000 -106.400 HU 90 2 16.8000 -106.400 TC 90 16.8000 -106.400 4 90 8 291
1979297N12265 1979 101 EP MM IGNACIO 1979-10-27 15:00:00 TS 16.9218 -106.853 main 339 338 P________PP___ EP091979 16.9227 -106.880 HU 107 3 16.9227 -106.880 TC 107 16.9181 -106.747 4 97 8 284
1979297N12265 1979 101 EP MM IGNACIO 1979-10-27 18:00:00 TS 16.9990 -107.255 125 938 hurdat_epa main 361 361 O________OP___ hurdat_epa EP091979 17.0000 -107.300 HU 125 938 4 17.0000 -107.300 TC 125 938 16.9951 -107.075 4 105 6 284
1979297N12265 1979 101 EP MM IGNACIO 1979-10-27 21:00:00 TS 17.0677 -107.463 main 368 368 P________PP___ EP091979 17.0723 -107.488 HU 122 4 17.0723 -107.488 TC 122 17.0494 -107.366 4 112 3 287
1979297N12265 1979 101 EP MM IGNACIO 1979-10-28 00:00:00 TS 17.1000 -107.600 120 hurdat_epa main 376 376 O________OO___ hurdat_epa EP091979 17.1000 -107.600 HU 120 4 17.1000 -107.600 TC 120 17.1000 -107.600 4 120 3 268
1979297N12265 1979 101 EP MM IGNACIO 1979-10-28 03:00:00 TS 17.0546 -107.814 main 391 391 P________PP___ EP091979 17.0276 -107.823 HU 117 4 17.0276 -107.823 TC 117 17.1626 -107.778 4 115 4 261
1979297N12265 1979 101 EP MM IGNACIO 1979-10-28 06:00:00 TS 17.0454 -107.980 115 hurdat_epa main 415 399 O________OP___ hurdat_epa EP091979 17.0000 -108.000 HU 115 4 17.0000 -108.000 TC 115 17.2272 -107.898 4 110 2 307
1979297N12265 1979 101 EP MM IGNACIO 1979-10-28 09:00:00 TS 17.1966 -108.012 main 399 383 P________PP___ EP091979 17.1700 -108.023 HU 107 3 17.1700 -108.023 TC 107 17.3033 -107.968 4 105 4 0
1979297N12265 1979 101 EP MM IGNACIO 1979-10-28 12:00:00 TS 17.4000 -108.000 100 hurdat_epa main 383 376 O________OO___ hurdat_epa EP091979 17.4000 -108.000 HU 100 3 17.4000 -108.000 TC 100 17.4000 -108.000 4 100 4 351
1979297N12265 1979 101 EP MM IGNACIO 1979-10-28 15:00:00 TS 17.5565 -108.064 main 377 370 P________PP___ EP091979 17.5575 -108.065 HU 95 2 17.5575 -108.065 TC 95 17.5526 -108.060 4 95 3 344
1979297N12265 1979 101 EP MM IGNACIO 1979-10-28 18:00:00 TS 17.7044 -108.096 90 969 hurdat_epa main 370 356 O________OP___ hurdat_epa EP091979 17.7000 -108.100 HU 90 969 2 17.7000 -108.100 TC 90 969 17.7221 -108.078 4 90 3 0
1979297N12265 1979 101 EP MM IGNACIO 1979-10-28 21:00:00 TS 17.8741 -108.048 main 348 333 P________PP___ EP091979 17.8724 -108.053 HU 85 2 17.8724 -108.053 TC 85 17.8806 -108.032 4 85 4 32
1979297N12265 1979 101 EP MM IGNACIO 1979-10-29 00:00:00 TS 18.0000 -107.900 80 hurdat_epa main 333 316 O________OO___ hurdat_epa EP091979 18.0000 -107.900 HU 80 1 18.0000 -107.900 TC 80 18.0000 -107.900 4 80 4 68
1979297N12265 1979 101 EP MM IGNACIO 1979-10-29 03:00:00 TS 18.0259 -107.645 main 307 283 P________PP___ EP091979 18.0225 -107.637 HU 77 1 18.0225 -107.637 TC 77 18.0392 -107.673 4 76 6 89
1979297N12265 1979 101 EP MM IGNACIO 1979-10-29 06:00:00 TS 18.0075 -107.312 75 hurdat_epa main 283 261 O________OP___ hurdat_epa EP091979 18.0000 -107.300 HU 75 1 18.0000 -107.300 TC 75 18.0376 -107.362 4 72 6 93
1979297N12265 1979 101 EP MM IGNACIO 1979-10-29 09:00:00 TS 17.9974 -106.971 main 261 230 P________PP___ EP091979 17.9924 -106.965 HU 70 1 17.9924 -106.965 TC 70 18.0172 -106.995 4 68 7 91
1979297N12265 1979 101 EP MM IGNACIO 1979-10-29 12:00:00 TS 18.0000 -106.600 65 hurdat_epa main 230 199 O________OO___ hurdat_epa EP091979 18.0000 -106.600 HU 65 1 18.0000 -106.600 TC 65 18.0000 -106.600 4 65 7 86
1979297N12265 1979 101 EP MM IGNACIO 1979-10-29 15:00:00 TS 18.0450 -106.219 main 199 162 P________PP___ EP091979 18.0500 -106.208 HU 60 0 18.0500 -106.208 TC 60 18.0251 -106.266 4 62 7 83
1979297N12265 1979 101 EP MM IGNACIO 1979-10-29 18:00:00 TS 18.0912 -105.821 55 hurdat_epa main 162 143 O________OP___ hurdat_epa EP091979 18.1000 -105.800 TS 55 0 18.1000 -105.800 TC 55 18.0562 -105.905 4 60 7 85
1979297N12265 1979 101 EP MM IGNACIO 1979-10-29 21:00:00 TS 18.1086 -105.442 main 138 124 P________PP___ EP091979 18.1147 -105.430 TS 55 0 18.1147 -105.430 TC 55 18.0842 -105.491 4 57 8 89
1979297N12265 1979 101 EP MM IGNACIO 1979-10-30 00:00:00 TS 18.1000 -105.000 55 997 hurdat_epa main 124 102 O________OO___ hurdat_epa EP091979 18.1000 -105.000 TS 55 997 0 18.1000 -105.000 TC 55 997 18.1000 -105.000 2 55 10 93
1979297N12265 1979 101 EP MM IGNACIO 1979-10-30 03:00:00 TS 18.0592 -104.445 main 95 46 P________PP___ EP091979 18.0498 -104.452 TS 55 0 18.0498 -104.452 TC 55 18.0965 -104.414 2 48 12 94
1979297N12265 1979 101 EP MM IGNACIO 1979-10-30 06:00:00 TS 18.0119 -103.792 55 hurdat_epa main 46 15 O________OP___ hurdat_epa EP091979 18.0000 -103.800 TS 55 0 18.0000 -103.800 TC 55 18.0756 -103.752 2 42 14 93
1979297N12265 1979 101 EP MM IGNACIO 1979-10-30 09:00:00 TS 17.9985 -103.002 main 15 0 P________PP___ EP091979 17.9931 -102.998 TS 42 0 17.9931 -102.998 TC 42 18.0418 -103.039 2 36 14 90
1979297N12265 1979 101 EP MM IGNACIO 1979-10-30 12:00:00 TS 18.0000 -102.300 30 hurdat_epa main 0 0 O________OO___ hurdat_epa EP091979 18.0000 -102.300 TD 30 -1 18.0000 -102.300 TC 30 18.0000 -102.300 1 30 10 90
1979297N12265 1979 101 EP MM IGNACIO 1979-10-30 15:00:00 TS 18.0020 -101.942 main 0 0 P________P____ EP091979 18.0020 -101.942 TD 27 -1 18.0020 -101.942 TC 27 1 5 90
1979297N12265 1979 101 EP MM IGNACIO 1979-10-30 18:00:00 ET 18.0000 -101.800 25 hurdat_epa main 0 O________O____ hurdat_epa EP091979 18.0000 -101.800 ET 25 -4 18.0000 -101.800 25 1 3 91

IBTrACS Databaseについて

本データベースは、米国NOAAが公開する1842年以降の世界の熱帯低気圧のベストトラックデータアーカイブInternational Best Track Archive for Climate Stewardship (IBTrACS)を、ウェブで閲覧しやすい形式に変換したものです。

最終更新日:2021-10-21